sensor_id;sensor_type;location;lat;lon;timestamp;P1;durP1;ratioP1;P2;durP2;ratioP2
9481;SDS011;4779;48.062;11.672;2023-12-20T00:02:03;2.30;;;2.10;;
9481;SDS011;4779;48.062;11.672;2023-12-20T00:04:32;3.07;;;2.50;;
9481;SDS011;4779;48.062;11.672;2023-12-20T00:06:59;3.73;;;3.10;;
9481;SDS011;4779;48.062;11.672;2023-12-20T00:09:26;4.77;;;4.00;;
9481;SDS011;4779;48.062;11.672;2023-12-20T00:11:53;3.87;;;3.27;;
9481;SDS011;4779;48.062;11.672;2023-12-20T00:14:20;3.50;;;3.20;;
9481;SDS011;4779;48.062;11.672;2023-12-20T00:16:47;3.20;;;2.40;;
9481;SDS011;4779;48.062;11.672;2023-12-20T00:19:14;3.30;;;2.27;;
9481;SDS011;4779;48.062;11.672;2023-12-20T00:21:43;2.83;;;2.20;;
9481;SDS011;4779;48.062;11.672;2023-12-20T00:24:10;2.47;;;2.27;;
9481;SDS011;4779;48.062;11.672;2023-12-20T00:26:37;2.73;;;2.37;;
9481;SDS011;4779;48.062;11.672;2023-12-20T00:29:03;2.20;;;2.00;;
9481;SDS011;4779;48.062;11.672;2023-12-20T00:31:30;2.90;;;1.83;;
9481;SDS011;4779;48.062;11.672;2023-12-20T00:33:57;3.13;;;1.87;;
9481;SDS011;4779;48.062;11.672;2023-12-20T00:36:23;2.33;;;2.13;;
9481;SDS011;4779;48.062;11.672;2023-12-20T00:38:52;2.20;;;2.00;;
9481;SDS011;4779;48.062;11.672;2023-12-20T00:41:19;2.30;;;2.10;;
9481;SDS011;4779;48.062;11.672;2023-12-20T00:43:46;2.20;;;1.77;;
9481;SDS011;4779;48.062;11.672;2023-12-20T00:46:14;2.13;;;1.90;;
9481;SDS011;4779;48.062;11.672;2023-12-20T00:48:41;2.13;;;1.93;;
9481;SDS011;4779;48.062;11.672;2023-12-20T00:51:10;2.13;;;1.93;;
9481;SDS011;4779;48.062;11.672;2023-12-20T00:53:37;2.03;;;1.90;;
9481;SDS011;4779;48.062;11.672;2023-12-20T00:56:06;2.93;;;1.93;;
9481;SDS011;4779;48.062;11.672;2023-12-20T00:58:33;2.03;;;1.83;;
9481;SDS011;4779;48.062;11.672;2023-12-20T01:01:00;3.93;;;2.00;;
9481;SDS011;4779;48.062;11.672;2023-12-20T01:03:27;3.53;;;2.13;;
9481;SDS011;4779;48.062;11.672;2023-12-20T01:05:54;2.87;;;2.20;;
9481;SDS011;4779;48.062;11.672;2023-12-20T01:08:22;2.20;;;2.00;;
9481;SDS011;4779;48.062;11.672;2023-12-20T01:10:49;2.43;;;2.23;;
9481;SDS011;4779;48.062;11.672;2023-12-20T01:13:17;2.80;;;2.37;;
9481;SDS011;4779;48.062;11.672;2023-12-20T01:15:44;2.30;;;2.10;;
9481;SDS011;4779;48.062;11.672;2023-12-20T01:18:12;2.77;;;2.10;;
9481;SDS011;4779;48.062;11.672;2023-12-20T01:20:39;2.50;;;2.30;;
9481;SDS011;4779;48.062;11.672;2023-12-20T01:23:06;5.10;;;2.10;;
9481;SDS011;4779;48.062;11.672;2023-12-20T01:25:33;2.20;;;2.00;;
9481;SDS011;4779;48.062;11.672;2023-12-20T01:28:00;2.37;;;2.10;;
9481;SDS011;4779;48.062;11.672;2023-12-20T01:30:29;2.23;;;1.80;;
9481;SDS011;4779;48.062;11.672;2023-12-20T01:32:56;2.13;;;1.93;;
9481;SDS011;4779;48.062;11.672;2023-12-20T01:35:23;2.63;;;2.07;;
9481;SDS011;4779;48.062;11.672;2023-12-20T01:37:50;2.37;;;2.00;;
9481;SDS011;4779;48.062;11.672;2023-12-20T01:40:19;2.40;;;1.80;;
9481;SDS011;4779;48.062;11.672;2023-12-20T01:42:46;1.90;;;1.70;;
9481;SDS011;4779;48.062;11.672;2023-12-20T01:45:13;2.40;;;2.07;;
9481;SDS011;4779;48.062;11.672;2023-12-20T01:47:42;1.70;;;1.60;;
9481;SDS011;4779;48.062;11.672;2023-12-20T01:50:09;2.70;;;2.00;;
9481;SDS011;4779;48.062;11.672;2023-12-20T01:52:36;2.13;;;1.93;;
9481;SDS011;4779;48.062;11.672;2023-12-20T01:55:04;2.53;;;1.90;;
9481;SDS011;4779;48.062;11.672;2023-12-20T01:57:38;2.00;;;1.90;;
9481;SDS011;4779;48.062;11.672;2023-12-20T02:00:06;2.30;;;2.10;;
9481;SDS011;4779;48.062;11.672;2023-12-20T02:02:34;2.13;;;1.93;;
9481;SDS011;4779;48.062;11.672;2023-12-20T02:05:04;2.30;;;2.10;;
9481;SDS011;4779;48.062;11.672;2023-12-20T02:07:32;2.10;;;1.90;;
9481;SDS011;4779;48.062;11.672;2023-12-20T02:10:00;2.10;;;1.90;;
9481;SDS011;4779;48.062;11.672;2023-12-20T02:12:27;2.63;;;1.97;;
9481;SDS011;4779;48.062;11.672;2023-12-20T02:14:54;2.03;;;1.70;;
9481;SDS011;4779;48.062;11.672;2023-12-20T02:17:21;2.80;;;2.17;;
9481;SDS011;4779;48.062;11.672;2023-12-20T02:19:49;2.33;;;1.90;;
9481;SDS011;4779;48.062;11.672;2023-12-20T02:22:17;2.37;;;2.10;;
9481;SDS011;4779;48.062;11.672;2023-12-20T02:24:44;1.70;;;1.57;;
9481;SDS011;4779;48.062;11.672;2023-12-20T02:27:11;1.50;;;1.40;;
9481;SDS011;4779;48.062;11.672;2023-12-20T02:29:39;2.40;;;1.90;;
9481;SDS011;4779;48.062;11.672;2023-12-20T02:32:06;2.17;;;1.97;;
9481;SDS011;4779;48.062;11.672;2023-12-20T02:34:32;2.37;;;1.83;;
9481;SDS011;4779;48.062;11.672;2023-12-20T02:36:59;2.53;;;2.00;;
9481;SDS011;4779;48.062;11.672;2023-12-20T02:39:28;1.77;;;1.67;;
9481;SDS011;4779;48.062;11.672;2023-12-20T02:41:55;2.13;;;1.93;;
9481;SDS011;4779;48.062;11.672;2023-12-20T02:44:22;2.00;;;1.60;;
9481;SDS011;4779;48.062;11.672;2023-12-20T02:46:49;1.63;;;1.40;;
9481;SDS011;4779;48.062;11.672;2023-12-20T02:49:16;1.67;;;1.57;;
9481;SDS011;4779;48.062;11.672;2023-12-20T02:51:43;1.33;;;1.23;;
9481;SDS011;4779;48.062;11.672;2023-12-20T02:54:11;1.30;;;1.20;;
9481;SDS011;4779;48.062;11.672;2023-12-20T02:56:39;1.90;;;1.67;;
9481;SDS011;4779;48.062;11.672;2023-12-20T02:59:06;2.40;;;2.10;;
9481;SDS011;4779;48.062;11.672;2023-12-20T03:01:34;2.23;;;2.03;;
9481;SDS011;4779;48.062;11.672;2023-12-20T03:04:01;2.50;;;2.00;;
9481;SDS011;4779;48.062;11.672;2023-12-20T03:06:28;2.20;;;2.00;;
9481;SDS011;4779;48.062;11.672;2023-12-20T03:08:55;2.90;;;2.60;;
9481;SDS011;4779;48.062;11.672;2023-12-20T03:11:26;2.47;;;2.20;;
9481;SDS011;4779;48.062;11.672;2023-12-20T03:13:54;2.60;;;2.20;;
9481;SDS011;4779;48.062;11.672;2023-12-20T03:16:21;2.30;;;2.20;;
9481;SDS011;4779;48.062;11.672;2023-12-20T03:18:49;2.33;;;2.13;;
9481;SDS011;4779;48.062;11.672;2023-12-20T03:21:16;3.47;;;1.90;;
9481;SDS011;4779;48.062;11.672;2023-12-20T03:23:43;3.03;;;2.20;;
9481;SDS011;4779;48.062;11.672;2023-12-20T03:26:10;2.40;;;2.20;;
9481;SDS011;4779;48.062;11.672;2023-12-20T03:28:37;3.40;;;2.63;;
9481;SDS011;4779;48.062;11.672;2023-12-20T03:31:05;2.40;;;2.00;;
9481;SDS011;4779;48.062;11.672;2023-12-20T03:33:32;2.67;;;2.20;;
9481;SDS011;4779;48.062;11.672;2023-12-20T03:35:59;2.73;;;2.40;;
9481;SDS011;4779;48.062;11.672;2023-12-20T03:38:26;2.50;;;2.30;;
9481;SDS011;4779;48.062;11.672;2023-12-20T03:40:53;2.40;;;2.20;;
9481;SDS011;4779;48.062;11.672;2023-12-20T03:43:20;2.90;;;2.60;;
9481;SDS011;4779;48.062;11.672;2023-12-20T03:45:47;2.57;;;2.23;;
9481;SDS011;4779;48.062;11.672;2023-12-20T03:48:15;2.47;;;2.13;;
9481;SDS011;4779;48.062;11.672;2023-12-20T03:50:43;2.60;;;2.27;;
9481;SDS011;4779;48.062;11.672;2023-12-20T03:53:10;2.40;;;1.97;;
9481;SDS011;4779;48.062;11.672;2023-12-20T03:55:37;2.30;;;2.10;;
9481;SDS011;4779;48.062;11.672;2023-12-20T03:58:04;3.03;;;2.50;;
9481;SDS011;4779;48.062;11.672;2023-12-20T04:00:31;2.50;;;2.30;;
9481;SDS011;4779;48.062;11.672;2023-12-20T04:02:57;2.00;;;1.90;;
9481;SDS011;4779;48.062;11.672;2023-12-20T04:05:26;2.43;;;2.10;;
9481;SDS011;4779;48.062;11.672;2023-12-20T04:07:53;2.00;;;1.80;;
9481;SDS011;4779;48.062;11.672;2023-12-20T04:10:20;2.00;;;1.90;;
9481;SDS011;4779;48.062;11.672;2023-12-20T04:12:47;2.20;;;1.60;;
9481;SDS011;4779;48.062;11.672;2023-12-20T04:15:14;1.40;;;1.30;;
9481;SDS011;4779;48.062;11.672;2023-12-20T04:17:41;1.43;;;1.10;;
9481;SDS011;4779;48.062;11.672;2023-12-20T04:20:08;0.80;;;0.80;;
9481;SDS011;4779;48.062;11.672;2023-12-20T04:22:37;0.60;;;0.60;;
9481;SDS011;4779;48.062;11.672;2023-12-20T04:25:04;0.50;;;0.50;;
9481;SDS011;4779;48.062;11.672;2023-12-20T04:27:31;1.03;;;0.70;;
9481;SDS011;4779;48.062;11.672;2023-12-20T04:29:58;0.70;;;0.70;;
9481;SDS011;4779;48.062;11.672;2023-12-20T04:32:25;0.60;;;0.60;;
9481;SDS011;4779;48.062;11.672;2023-12-20T04:34:52;1.53;;;0.70;;
9481;SDS011;4779;48.062;11.672;2023-12-20T04:37:19;0.90;;;0.70;;
9481;SDS011;4779;48.062;11.672;2023-12-20T04:39:47;1.27;;;0.77;;
9481;SDS011;4779;48.062;11.672;2023-12-20T04:42:15;0.83;;;0.83;;
9481;SDS011;4779;48.062;11.672;2023-12-20T04:44:42;0.67;;;0.67;;
9481;SDS011;4779;48.062;11.672;2023-12-20T04:47:09;1.23;;;0.80;;
9481;SDS011;4779;48.062;11.672;2023-12-20T04:49:37;0.93;;;0.90;;
9481;SDS011;4779;48.062;11.672;2023-12-20T04:52:04;1.10;;;1.00;;
9481;SDS011;4779;48.062;11.672;2023-12-20T04:54:31;1.10;;;1.00;;
9481;SDS011;4779;48.062;11.672;2023-12-20T04:56:59;0.87;;;0.87;;
9481;SDS011;4779;48.062;11.672;2023-12-20T04:59:26;0.70;;;0.70;;
9481;SDS011;4779;48.062;11.672;2023-12-20T05:01:53;1.20;;;0.80;;
9481;SDS011;4779;48.062;11.672;2023-12-20T05:04:20;2.03;;;1.10;;
9481;SDS011;4779;48.062;11.672;2023-12-20T05:06:47;0.90;;;0.90;;
9481;SDS011;4779;48.062;11.672;2023-12-20T05:09:16;1.00;;;1.00;;
9481;SDS011;4779;48.062;11.672;2023-12-20T05:11:43;1.17;;;1.07;;
9481;SDS011;4779;48.062;11.672;2023-12-20T05:14:11;1.07;;;1.03;;
9481;SDS011;4779;48.062;11.672;2023-12-20T05:16:38;1.17;;;1.00;;
9481;SDS011;4779;48.062;11.672;2023-12-20T05:19:05;0.93;;;0.90;;
9481;SDS011;4779;48.062;11.672;2023-12-20T05:21:32;1.20;;;1.10;;
9481;SDS011;4779;48.062;11.672;2023-12-20T05:23:59;1.30;;;1.20;;
9481;SDS011;4779;48.062;11.672;2023-12-20T05:26:26;1.20;;;1.10;;
9481;SDS011;4779;48.062;11.672;2023-12-20T05:28:55;1.63;;;1.33;;
9481;SDS011;4779;48.062;11.672;2023-12-20T05:31:23;1.40;;;1.30;;
9481;SDS011;4779;48.062;11.672;2023-12-20T05:33:50;1.20;;;1.10;;
9481;SDS011;4779;48.062;11.672;2023-12-20T05:36:18;1.30;;;1.20;;
9481;SDS011;4779;48.062;11.672;2023-12-20T05:38:45;1.40;;;1.30;;
9481;SDS011;4779;48.062;11.672;2023-12-20T05:41:12;1.40;;;1.30;;
9481;SDS011;4779;48.062;11.672;2023-12-20T05:43:39;1.40;;;1.30;;
9481;SDS011;4779;48.062;11.672;2023-12-20T05:46:07;1.30;;;1.20;;
9481;SDS011;4779;48.062;11.672;2023-12-20T05:48:37;2.60;;;1.30;;
9481;SDS011;4779;48.062;11.672;2023-12-20T05:51:07;1.57;;;1.20;;
9481;SDS011;4779;48.062;11.672;2023-12-20T05:53:37;1.43;;;1.30;;
9481;SDS011;4779;48.062;11.672;2023-12-20T05:56:04;1.30;;;1.20;;
9481;SDS011;4779;48.062;11.672;2023-12-20T05:58:32;1.70;;;1.30;;
9481;SDS011;4779;48.062;11.672;2023-12-20T06:00:59;1.73;;;1.60;;
9481;SDS011;4779;48.062;11.672;2023-12-20T06:03:26;1.47;;;1.37;;
9481;SDS011;4779;48.062;11.672;2023-12-20T06:05:54;1.50;;;1.40;;
9481;SDS011;4779;48.062;11.672;2023-12-20T06:08:21;1.37;;;1.27;;
9481;SDS011;4779;48.062;11.672;2023-12-20T06:10:48;1.47;;;1.37;;
9481;SDS011;4779;48.062;11.672;2023-12-20T06:13:15;1.30;;;1.20;;
9481;SDS011;4779;48.062;11.672;2023-12-20T06:15:42;2.00;;;1.33;;
9481;SDS011;4779;48.062;11.672;2023-12-20T06:18:09;3.00;;;1.47;;
9481;SDS011;4779;48.062;11.672;2023-12-20T06:20:36;2.33;;;1.50;;
9481;SDS011;4779;48.062;11.672;2023-12-20T06:23:05;1.80;;;1.37;;
9481;SDS011;4779;48.062;11.672;2023-12-20T06:25:32;1.97;;;1.67;;
9481;SDS011;4779;48.062;11.672;2023-12-20T06:27:59;1.50;;;1.10;;
9481;SDS011;4779;48.062;11.672;2023-12-20T06:30:26;2.43;;;1.83;;
9481;SDS011;4779;48.062;11.672;2023-12-20T06:32:53;2.73;;;2.10;;
9481;SDS011;4779;48.062;11.672;2023-12-20T06:35:22;1.87;;;1.27;;
9481;SDS011;4779;48.062;11.672;2023-12-20T06:37:49;2.30;;;1.80;;
9481;SDS011;4779;48.062;11.672;2023-12-20T06:40:18;1.97;;;1.37;;
9481;SDS011;4779;48.062;11.672;2023-12-20T06:42:45;1.63;;;1.20;;
9481;SDS011;4779;48.062;11.672;2023-12-20T06:45:12;2.37;;;1.37;;
9481;SDS011;4779;48.062;11.672;2023-12-20T06:47:39;1.17;;;1.10;;
9481;SDS011;4779;48.062;11.672;2023-12-20T06:50:06;1.80;;;1.07;;
9481;SDS011;4779;48.062;11.672;2023-12-20T06:52:34;1.10;;;1.00;;
9481;SDS011;4779;48.062;11.672;2023-12-20T06:55:01;1.10;;;1.00;;
9481;SDS011;4779;48.062;11.672;2023-12-20T06:57:30;0.90;;;0.90;;
9481;SDS011;4779;48.062;11.672;2023-12-20T06:59:57;1.73;;;1.10;;
9481;SDS011;4779;48.062;11.672;2023-12-20T07:02:24;0.90;;;0.90;;
9481;SDS011;4779;48.062;11.672;2023-12-20T07:04:54;0.90;;;0.90;;
9481;SDS011;4779;48.062;11.672;2023-12-20T07:07:21;0.70;;;0.70;;
9481;SDS011;4779;48.062;11.672;2023-12-20T07:09:49;0.73;;;0.70;;
9481;SDS011;4779;48.062;11.672;2023-12-20T07:12:16;0.77;;;0.73;;
9481;SDS011;4779;48.062;11.672;2023-12-20T07:14:45;0.80;;;0.80;;
9481;SDS011;4779;48.062;11.672;2023-12-20T07:17:13;0.70;;;0.70;;
9481;SDS011;4779;48.062;11.672;2023-12-20T07:19:40;0.97;;;0.73;;
9481;SDS011;4779;48.062;11.672;2023-12-20T07:22:07;0.70;;;0.70;;
9481;SDS011;4779;48.062;11.672;2023-12-20T07:24:35;0.90;;;0.87;;
9481;SDS011;4779;48.062;11.672;2023-12-20T07:27:02;2.87;;;0.80;;
9481;SDS011;4779;48.062;11.672;2023-12-20T07:29:29;0.70;;;0.70;;
9481;SDS011;4779;48.062;11.672;2023-12-20T07:31:57;0.60;;;0.60;;
9481;SDS011;4779;48.062;11.672;2023-12-20T07:34:24;1.90;;;0.80;;
9481;SDS011;4779;48.062;11.672;2023-12-20T07:36:51;0.60;;;0.60;;
9481;SDS011;4779;48.062;11.672;2023-12-20T07:39:18;1.17;;;0.90;;
9481;SDS011;4779;48.062;11.672;2023-12-20T07:41:45;1.30;;;0.90;;
9481;SDS011;4779;48.062;11.672;2023-12-20T07:44:12;1.30;;;0.70;;
9481;SDS011;4779;48.062;11.672;2023-12-20T07:46:40;0.70;;;0.70;;
9481;SDS011;4779;48.062;11.672;2023-12-20T07:49:09;1.37;;;0.90;;
9481;SDS011;4779;48.062;11.672;2023-12-20T07:51:36;1.10;;;0.80;;
9481;SDS011;4779;48.062;11.672;2023-12-20T07:54:03;0.90;;;0.90;;
9481;SDS011;4779;48.062;11.672;2023-12-20T07:56:30;0.87;;;0.87;;
9481;SDS011;4779;48.062;11.672;2023-12-20T07:58:57;2.60;;;1.47;;
9481;SDS011;4779;48.062;11.672;2023-12-20T08:01:24;2.20;;;1.67;;
9481;SDS011;4779;48.062;11.672;2023-12-20T08:03:51;1.07;;;0.97;;
9481;SDS011;4779;48.062;11.672;2023-12-20T08:06:19;1.10;;;1.00;;
9481;SDS011;4779;48.062;11.672;2023-12-20T08:08:47;1.13;;;1.03;;
9481;SDS011;4779;48.062;11.672;2023-12-20T08:11:14;0.80;;;0.80;;
9481;SDS011;4779;48.062;11.672;2023-12-20T08:13:41;0.90;;;0.90;;
9481;SDS011;4779;48.062;11.672;2023-12-20T08:16:08;1.10;;;1.00;;
9481;SDS011;4779;48.062;11.672;2023-12-20T08:18:36;1.07;;;0.93;;
9481;SDS011;4779;48.062;11.672;2023-12-20T08:21:03;1.17;;;1.07;;
9481;SDS011;4779;48.062;11.672;2023-12-20T08:23:34;2.03;;;1.40;;
9481;SDS011;4779;48.062;11.672;2023-12-20T08:26:03;1.40;;;0.90;;
9481;SDS011;4779;48.062;11.672;2023-12-20T08:28:31;1.77;;;1.20;;
9481;SDS011;4779;48.062;11.672;2023-12-20T08:30:58;0.80;;;0.80;;
9481;SDS011;4779;48.062;11.672;2023-12-20T08:33:25;1.77;;;0.90;;
9481;SDS011;4779;48.062;11.672;2023-12-20T08:35:52;1.37;;;1.23;;
9481;SDS011;4779;48.062;11.672;2023-12-20T08:38:19;1.13;;;0.90;;
9481;SDS011;4779;48.062;11.672;2023-12-20T08:40:47;1.00;;;1.00;;
9481;SDS011;4779;48.062;11.672;2023-12-20T08:43:14;1.70;;;0.97;;
9481;SDS011;4779;48.062;11.672;2023-12-20T08:45:41;1.03;;;0.93;;
9481;SDS011;4779;48.062;11.672;2023-12-20T08:48:08;1.03;;;1.03;;
9481;SDS011;4779;48.062;11.672;2023-12-20T08:50:35;1.03;;;0.50;;
9481;SDS011;4779;48.062;11.672;2023-12-20T08:53:03;1.27;;;1.17;;
9481;SDS011;4779;48.062;11.672;2023-12-20T08:55:30;1.17;;;0.90;;
9481;SDS011;4779;48.062;11.672;2023-12-20T08:58:02;2.80;;;0.90;;
9481;SDS011;4779;48.062;11.672;2023-12-20T09:00:31;0.67;;;0.67;;
9481;SDS011;4779;48.062;11.672;2023-12-20T09:02:58;3.27;;;1.37;;
9481;SDS011;4779;48.062;11.672;2023-12-20T09:05:25;1.73;;;1.17;;
9481;SDS011;4779;48.062;11.672;2023-12-20T09:07:53;1.43;;;1.30;;
9481;SDS011;4779;48.062;11.672;2023-12-20T09:10:20;2.20;;;1.90;;
9481;SDS011;4779;48.062;11.672;2023-12-20T09:12:48;2.07;;;1.10;;
9481;SDS011;4779;48.062;11.672;2023-12-20T09:15:17;1.30;;;1.20;;
9481;SDS011;4779;48.062;11.672;2023-12-20T09:17:44;0.80;;;0.80;;
9481;SDS011;4779;48.062;11.672;2023-12-20T09:20:11;1.10;;;1.00;;
9481;SDS011;4779;48.062;11.672;2023-12-20T09:22:38;2.20;;;1.00;;
9481;SDS011;4779;48.062;11.672;2023-12-20T09:25:07;0.90;;;0.90;;
9481;SDS011;4779;48.062;11.672;2023-12-20T09:27:35;1.80;;;0.90;;
9481;SDS011;4779;48.062;11.672;2023-12-20T09:30:02;1.53;;;1.10;;
9481;SDS011;4779;48.062;11.672;2023-12-20T09:32:31;1.13;;;0.90;;
9481;SDS011;4779;48.062;11.672;2023-12-20T09:34:58;1.10;;;0.80;;
9481;SDS011;4779;48.062;11.672;2023-12-20T09:37:26;1.10;;;0.73;;
9481;SDS011;4779;48.062;11.672;2023-12-20T09:39:53;1.27;;;0.80;;
9481;SDS011;4779;48.062;11.672;2023-12-20T09:42:21;1.00;;;0.90;;
9481;SDS011;4779;48.062;11.672;2023-12-20T09:44:55;0.97;;;0.90;;
9481;SDS011;4779;48.062;11.672;2023-12-20T09:47:34;1.03;;;0.60;;
9481;SDS011;4779;48.062;11.672;2023-12-20T09:50:01;1.60;;;0.77;;
9481;SDS011;4779;48.062;11.672;2023-12-20T09:52:29;0.70;;;0.70;;
9481;SDS011;4779;48.062;11.672;2023-12-20T09:54:56;1.77;;;0.80;;
9481;SDS011;4779;48.062;11.672;2023-12-20T09:57:24;0.60;;;0.60;;
9481;SDS011;4779;48.062;11.672;2023-12-20T09:59:51;0.60;;;0.60;;
9481;SDS011;4779;48.062;11.672;2023-12-20T10:02:18;0.63;;;0.63;;
9481;SDS011;4779;48.062;11.672;2023-12-20T10:04:54;1.63;;;0.90;;
9481;SDS011;4779;48.062;11.672;2023-12-20T10:07:21;0.80;;;0.70;;
9481;SDS011;4779;48.062;11.672;2023-12-20T10:09:48;0.83;;;0.70;;
9481;SDS011;4779;48.062;11.672;2023-12-20T10:12:17;1.40;;;1.17;;
9481;SDS011;4779;48.062;11.672;2023-12-20T10:14:44;1.10;;;1.00;;
9481;SDS011;4779;48.062;11.672;2023-12-20T10:17:11;1.10;;;0.90;;
9481;SDS011;4779;48.062;11.672;2023-12-20T10:19:38;1.70;;;0.87;;
9481;SDS011;4779;48.062;11.672;2023-12-20T10:22:06;1.00;;;0.83;;
9481;SDS011;4779;48.062;11.672;2023-12-20T10:24:33;1.20;;;1.00;;
9481;SDS011;4779;48.062;11.672;2023-12-20T10:27:04;0.80;;;0.80;;
9481;SDS011;4779;48.062;11.672;2023-12-20T10:29:32;0.77;;;0.77;;
9481;SDS011;4779;48.062;11.672;2023-12-20T10:32:01;0.80;;;0.80;;
9481;SDS011;4779;48.062;11.672;2023-12-20T10:34:49;1.37;;;0.90;;
9481;SDS011;4779;48.062;11.672;2023-12-20T10:37:17;1.27;;;1.00;;
9481;SDS011;4779;48.062;11.672;2023-12-20T10:39:45;1.67;;;1.00;;
9481;SDS011;4779;48.062;11.672;2023-12-20T10:42:16;1.13;;;1.00;;
9481;SDS011;4779;48.062;11.672;2023-12-20T10:44:44;0.80;;;0.80;;
9481;SDS011;4779;48.062;11.672;2023-12-20T10:47:12;1.10;;;0.87;;
9481;SDS011;4779;48.062;11.672;2023-12-20T10:49:40;0.83;;;0.83;;
9481;SDS011;4779;48.062;11.672;2023-12-20T10:52:08;0.60;;;0.60;;
9481;SDS011;4779;48.062;11.672;2023-12-20T10:54:38;0.70;;;0.70;;
9481;SDS011;4779;48.062;11.672;2023-12-20T10:57:06;0.70;;;0.70;;
9481;SDS011;4779;48.062;11.672;2023-12-20T10:59:36;0.70;;;0.70;;
9481;SDS011;4779;48.062;11.672;2023-12-20T11:02:07;0.60;;;0.60;;
9481;SDS011;4779;48.062;11.672;2023-12-20T11:04:37;0.60;;;0.53;;
9481;SDS011;4779;48.062;11.672;2023-12-20T11:07:15;0.70;;;0.70;;
9481;SDS011;4779;48.062;11.672;2023-12-20T11:09:49;0.83;;;0.60;;
9481;SDS011;4779;48.062;11.672;2023-12-20T11:12:26;0.70;;;0.70;;
9481;SDS011;4779;48.062;11.672;2023-12-20T11:15:01;1.53;;;1.20;;
9481;SDS011;4779;48.062;11.672;2023-12-20T11:17:31;1.10;;;1.00;;
9481;SDS011;4779;48.062;11.672;2023-12-20T11:20:07;1.77;;;0.90;;
9481;SDS011;4779;48.062;11.672;2023-12-20T11:22:38;1.43;;;1.20;;
9481;SDS011;4779;48.062;11.672;2023-12-20T11:25:19;1.43;;;1.27;;
9481;SDS011;4779;48.062;11.672;2023-12-20T11:28:06;1.53;;;1.20;;
9481;SDS011;4779;48.062;11.672;2023-12-20T11:30:41;1.33;;;1.23;;
9481;SDS011;4779;48.062;11.672;2023-12-20T11:33:08;1.43;;;1.40;;
9481;SDS011;4779;48.062;11.672;2023-12-20T11:35:35;1.50;;;1.40;;
9481;SDS011;4779;48.062;11.672;2023-12-20T11:38:04;1.47;;;1.37;;
9481;SDS011;4779;48.062;11.672;2023-12-20T11:40:36;2.03;;;1.13;;
9481;SDS011;4779;48.062;11.672;2023-12-20T11:43:03;1.13;;;1.10;;
9481;SDS011;4779;48.062;11.672;2023-12-20T11:45:30;2.90;;;1.30;;
9481;SDS011;4779;48.062;11.672;2023-12-20T11:47:57;1.27;;;1.10;;
9481;SDS011;4779;48.062;11.672;2023-12-20T11:50:24;1.17;;;1.10;;
9481;SDS011;4779;48.062;11.672;2023-12-20T11:52:52;1.03;;;1.00;;
9481;SDS011;4779;48.062;11.672;2023-12-20T11:55:20;1.10;;;1.10;;
9481;SDS011;4779;48.062;11.672;2023-12-20T11:57:49;1.20;;;1.10;;
9481;SDS011;4779;48.062;11.672;2023-12-20T12:00:17;1.37;;;1.27;;
9481;SDS011;4779;48.062;11.672;2023-12-20T12:02:54;1.50;;;1.40;;
9481;SDS011;4779;48.062;11.672;2023-12-20T12:05:23;1.40;;;1.30;;
9481;SDS011;4779;48.062;11.672;2023-12-20T12:07:51;2.20;;;1.10;;
9481;SDS011;4779;48.062;11.672;2023-12-20T12:10:18;1.63;;;1.37;;
9481;SDS011;4779;48.062;11.672;2023-12-20T12:12:45;1.30;;;1.03;;
9481;SDS011;4779;48.062;11.672;2023-12-20T12:15:14;0.80;;;0.80;;
9481;SDS011;4779;48.062;11.672;2023-12-20T12:17:41;1.77;;;1.00;;
9481;SDS011;4779;48.062;11.672;2023-12-20T12:20:09;1.23;;;1.00;;
9481;SDS011;4779;48.062;11.672;2023-12-20T12:22:36;0.70;;;0.70;;
9481;SDS011;4779;48.062;11.672;2023-12-20T12:25:10;1.73;;;1.37;;
9481;SDS011;4779;48.062;11.672;2023-12-20T12:27:39;1.40;;;1.30;;
9481;SDS011;4779;48.062;11.672;2023-12-20T12:30:08;1.77;;;1.10;;
9481;SDS011;4779;48.062;11.672;2023-12-20T12:32:39;3.13;;;1.07;;
9481;SDS011;4779;48.062;11.672;2023-12-20T12:35:07;2.30;;;1.27;;
9481;SDS011;4779;48.062;11.672;2023-12-20T12:37:35;1.10;;;1.00;;
9481;SDS011;4779;48.062;11.672;2023-12-20T12:40:04;1.60;;;1.13;;
9481;SDS011;4779;48.062;11.672;2023-12-20T12:42:32;1.67;;;1.10;;
9481;SDS011;4779;48.062;11.672;2023-12-20T12:44:59;2.27;;;1.77;;
9481;SDS011;4779;48.062;11.672;2023-12-20T12:47:26;1.97;;;1.50;;
9481;SDS011;4779;48.062;11.672;2023-12-20T12:49:55;2.57;;;1.67;;
9481;SDS011;4779;48.062;11.672;2023-12-20T12:52:23;2.40;;;2.07;;
9481;SDS011;4779;48.062;11.672;2023-12-20T12:54:50;2.70;;;1.60;;
9481;SDS011;4779;48.062;11.672;2023-12-20T12:57:16;2.17;;;1.90;;
9481;SDS011;4779;48.062;11.672;2023-12-20T12:59:44;2.83;;;1.77;;
9481;SDS011;4779;48.062;11.672;2023-12-20T13:02:11;2.47;;;2.27;;
9481;SDS011;4779;48.062;11.672;2023-12-20T13:04:38;2.97;;;2.60;;
9481;SDS011;4779;48.062;11.672;2023-12-20T13:07:09;4.63;;;3.97;;
9481;SDS011;4779;48.062;11.672;2023-12-20T13:09:36;6.23;;;4.70;;
9481;SDS011;4779;48.062;11.672;2023-12-20T13:12:04;3.37;;;2.90;;
9481;SDS011;4779;48.062;11.672;2023-12-20T13:14:32;2.50;;;1.60;;
9481;SDS011;4779;48.062;11.672;2023-12-20T13:17:02;2.93;;;2.10;;
9481;SDS011;4779;48.062;11.672;2023-12-20T13:19:29;3.67;;;2.10;;
9481;SDS011;4779;48.062;11.672;2023-12-20T13:21:57;2.50;;;1.90;;
9481;SDS011;4779;48.062;11.672;2023-12-20T13:24:25;2.67;;;1.43;;
9481;SDS011;4779;48.062;11.672;2023-12-20T13:26:52;3.90;;;1.70;;
9481;SDS011;4779;48.062;11.672;2023-12-20T13:29:19;1.93;;;1.53;;
9481;SDS011;4779;48.062;11.672;2023-12-20T13:31:46;1.50;;;1.40;;
9481;SDS011;4779;48.062;11.672;2023-12-20T13:34:14;1.30;;;1.20;;
9481;SDS011;4779;48.062;11.672;2023-12-20T13:36:42;1.63;;;1.53;;
9481;SDS011;4779;48.062;11.672;2023-12-20T13:39:10;1.73;;;1.63;;
9481;SDS011;4779;48.062;11.672;2023-12-20T13:41:39;3.40;;;1.70;;
9481;SDS011;4779;48.062;11.672;2023-12-20T13:44:07;1.93;;;1.70;;
9481;SDS011;4779;48.062;11.672;2023-12-20T13:46:34;2.00;;;1.80;;
9481;SDS011;4779;48.062;11.672;2023-12-20T13:49:02;2.10;;;1.57;;
9481;SDS011;4779;48.062;11.672;2023-12-20T13:51:30;2.03;;;1.93;;
9481;SDS011;4779;48.062;11.672;2023-12-20T13:53:57;5.33;;;2.00;;
9481;SDS011;4779;48.062;11.672;2023-12-20T13:56:24;2.23;;;2.00;;
9481;SDS011;4779;48.062;11.672;2023-12-20T13:58:52;2.20;;;2.00;;
9481;SDS011;4779;48.062;11.672;2023-12-20T14:01:19;2.40;;;2.03;;
9481;SDS011;4779;48.062;11.672;2023-12-20T14:03:46;2.40;;;1.90;;
9481;SDS011;4779;48.062;11.672;2023-12-20T14:06:13;3.97;;;2.10;;
9481;SDS011;4779;48.062;11.672;2023-12-20T14:08:42;3.70;;;2.40;;
9481;SDS011;4779;48.062;11.672;2023-12-20T14:11:11;4.10;;;2.63;;
9481;SDS011;4779;48.062;11.672;2023-12-20T14:13:40;5.30;;;2.20;;
9481;SDS011;4779;48.062;11.672;2023-12-20T14:16:09;2.93;;;2.40;;
9481;SDS011;4779;48.062;11.672;2023-12-20T14:18:37;5.40;;;2.70;;
9481;SDS011;4779;48.062;11.672;2023-12-20T14:21:05;3.97;;;2.57;;
9481;SDS011;4779;48.062;11.672;2023-12-20T14:23:32;5.03;;;2.77;;
9481;SDS011;4779;48.062;11.672;2023-12-20T14:26:02;3.77;;;2.37;;
9481;SDS011;4779;48.062;11.672;2023-12-20T14:28:29;2.60;;;2.40;;
9481;SDS011;4779;48.062;11.672;2023-12-20T14:30:57;3.53;;;2.50;;
9481;SDS011;4779;48.062;11.672;2023-12-20T14:33:25;3.93;;;2.50;;
9481;SDS011;4779;48.062;11.672;2023-12-20T14:35:52;4.53;;;2.40;;
9481;SDS011;4779;48.062;11.672;2023-12-20T14:38:19;5.43;;;2.70;;
9481;SDS011;4779;48.062;11.672;2023-12-20T14:40:46;3.30;;;2.70;;
9481;SDS011;4779;48.062;11.672;2023-12-20T14:43:13;4.33;;;2.70;;
9481;SDS011;4779;48.062;11.672;2023-12-20T14:45:41;4.37;;;2.60;;
9481;SDS011;4779;48.062;11.672;2023-12-20T14:48:08;2.93;;;2.70;;
9481;SDS011;4779;48.062;11.672;2023-12-20T14:50:37;3.53;;;2.60;;
9481;SDS011;4779;48.062;11.672;2023-12-20T14:53:06;3.03;;;2.60;;
9481;SDS011;4779;48.062;11.672;2023-12-20T14:55:33;2.77;;;2.40;;
9481;SDS011;4779;48.062;11.672;2023-12-20T14:58:00;3.20;;;2.57;;
9481;SDS011;4779;48.062;11.672;2023-12-20T15:00:27;4.70;;;2.50;;
9481;SDS011;4779;48.062;11.672;2023-12-20T15:02:55;3.77;;;2.67;;
9481;SDS011;4779;48.062;11.672;2023-12-20T15:05:22;3.53;;;2.57;;